createdAt,value
2016-05-25T00:00:47.188Z,55.46
2016-05-25T00:01:47.206Z,55.46
2016-05-25T00:02:47.224Z,55.36
2016-05-25T00:03:47.258Z,55.27
2016-05-25T00:04:47.277Z,55.46
2016-05-25T00:05:47.295Z,55.46
2016-05-25T00:06:47.330Z,55.27
2016-05-25T00:07:47.347Z,55.46
2016-05-25T00:08:47.366Z,55.46
2016-05-25T00:09:47.228Z,55.46
2016-05-25T00:10:47.433Z,55.27
2016-05-25T00:11:47.280Z,55.46
2016-05-25T00:12:47.470Z,55.36
2016-05-25T00:13:47.488Z,55.46
2016-05-25T00:14:47.507Z,55.46
2016-05-25T00:15:47.540Z,55.18
2016-05-25T00:16:47.560Z,55.46
2016-05-25T00:17:47.577Z,55.46
2016-05-25T00:18:47.612Z,55.46
2016-05-25T00:19:47.629Z,55.27
2016-05-25T00:20:47.648Z,55.56
2016-05-25T00:21:47.682Z,55.27
2016-05-25T00:22:47.700Z,55.46
2016-05-25T00:23:47.734Z,55.46
2016-05-25T00:24:47.596Z,55.46
2016-05-25T00:25:47.771Z,55.46
2016-05-25T00:26:47.789Z,54.99
2016-05-25T00:27:47.823Z,55.46
2016-05-25T00:28:47.686Z,55.27
2016-05-25T00:29:47.876Z,55.46
2016-05-25T00:30:47.894Z,55.27
2016-05-25T00:31:47.756Z,55.75
2016-05-25T00:32:47.930Z,55.75
2016-05-25T00:33:47.964Z,55.46
2016-05-25T00:34:47.983Z,55.65
2016-05-25T00:35:48.016Z,55.27
2016-05-25T00:36:48.050Z,55.18
2016-05-25T00:37:48.068Z,55.46
2016-05-25T00:38:48.088Z,54.99
2016-05-25T00:39:48.106Z,55.36
2016-05-25T00:40:47.983Z,55.27
2016-05-25T00:41:48.158Z,55.46
2016-05-25T00:42:48.019Z,55.27
2016-05-25T00:43:48.210Z,55.18
2016-05-25T00:44:48.228Z,55.36
2016-05-25T00:45:48.246Z,55.18
2016-05-25T00:46:48.280Z,55.46
2016-05-25T00:47:48.315Z,55.46
2016-05-25T00:48:48.318Z,55.18
2016-05-25T00:49:48.351Z,55.18
2016-05-25T00:50:48.370Z,55.08
2016-05-25T00:51:48.387Z,55.18
2016-05-25T00:52:48.406Z,55.18
2016-05-25T00:53:48.440Z,55.46
2016-05-25T00:54:48.458Z,55.18
2016-05-25T00:55:48.493Z,55.46
2016-05-25T00:56:48.511Z,55.18
2016-05-25T00:57:48.528Z,55.27
2016-05-25T00:58:48.562Z,55.46
2016-05-25T00:59:48.581Z,55.27
2016-05-25T01:00:48.615Z,55.56
2016-05-25T01:01:48.649Z,55.46
2016-05-25T01:02:48.667Z,55.27
2016-05-25T01:03:48.686Z,55.46
2016-05-25T01:04:48.703Z,55.36
2016-05-25T01:05:48.722Z,55.46
2016-05-25T01:06:48.755Z,55.36
2016-05-25T01:07:48.774Z,55.27
2016-05-25T01:08:48.808Z,55.27
2016-05-25T01:09:48.671Z,55.08
2016-05-25T01:10:48.845Z,55.75
2016-05-25T01:11:48.707Z,54.99
2016-05-25T01:12:48.897Z,55.27
2016-05-25T01:13:48.915Z,55.18
2016-05-25T01:14:48.949Z,55.46
2016-05-25T01:15:48.968Z,55.65
2016-05-25T01:16:49.360Z,55.46
2016-05-25T01:17:49.020Z,55.46
2016-05-25T01:18:49.038Z,55.18
2016-05-25T01:19:49.057Z,55.46
2016-05-25T01:20:49.090Z,55.46
2016-05-25T01:21:49.109Z,55.27
2016-05-25T01:22:49.127Z,55.36
2016-05-25T01:23:49.161Z,55.46
2016-05-25T01:24:49.461Z,55.46
2016-05-25T01:25:49.229Z,55.65
2016-05-25T01:26:49.231Z,55.46
2016-05-25T01:27:49.251Z,55.27
2016-05-25T01:28:49.284Z,55.36
2016-05-25T01:29:49.162Z,55.36
2016-05-25T01:30:49.336Z,55.36
2016-05-25T01:31:49.511Z,55.18
2016-05-25T01:32:49.373Z,55.18
2016-05-25T01:33:49.391Z,55.27
2016-05-25T01:34:49.409Z,55.27
2016-05-25T01:35:49.444Z,55.36
2016-05-25T01:36:49.305Z,55.56
2016-05-25T01:37:49.511Z,55.56
2016-05-25T01:38:49.357Z,55.75
2016-05-25T01:39:49.532Z,55.65
2016-05-25T01:40:49.411Z,55.36
2016-05-25T01:41:49.585Z,55.56
2016-05-25T01:42:49.603Z,55.65
2016-05-25T01:43:49.637Z,55.56
2016-05-25T01:44:49.655Z,55.65
2016-05-25T01:45:49.674Z,55.18
2016-05-25T01:46:49.738Z,55.27
2016-05-25T01:47:49.726Z,55.46
2016-05-25T01:48:49.588Z,55.46
2016-05-25T01:49:49.622Z,55.56
2016-05-25T01:50:49.796Z,55.46
2016-05-25T01:51:49.673Z,55.36
2016-05-25T01:52:49.849Z,55.36
2016-05-25T01:53:49.867Z,55.65
2016-05-25T01:54:49.901Z,55.85
2016-05-25T01:55:49.903Z,55.85
2016-05-25T01:56:49.953Z,56.13
2016-05-25T01:57:49.971Z,55.46
2016-05-25T01:58:49.989Z,56.04
2016-05-25T01:59:50.008Z,55.85
2016-05-25T02:00:50.042Z,55.94
2016-05-25T02:01:50.467Z,56.13
2016-05-25T02:02:50.079Z,56.04
2016-05-25T02:03:50.112Z,55.91
2016-05-25T02:04:50.131Z,56.01
2016-05-25T02:05:50.149Z,56.04
2016-05-25T02:06:50.183Z,55.91
2016-05-25T02:07:50.202Z,56.13
2016-05-25T02:08:50.063Z,56.01
2016-05-25T02:09:50.253Z,56.1
2016-05-25T02:10:50.272Z,55.82
2016-05-25T02:11:50.291Z,56.13
2016-05-25T02:12:50.325Z,55.94
2016-05-25T02:13:50.343Z,55.82
2016-05-25T02:14:50.361Z,56.32
2016-05-25T02:15:50.394Z,55.94
2016-05-25T02:16:50.413Z,56.42
2016-05-25T02:17:50.274Z,56.49
2016-05-25T02:18:50.465Z,56.23
2016-05-25T02:19:50.484Z,56.42
2016-05-25T02:20:50.518Z,56.13
2016-05-25T02:21:50.535Z,56.13
2016-05-25T02:22:50.554Z,56.2
2016-05-25T02:23:50.588Z,56.2
2016-05-25T02:24:50.607Z,55.91
2016-05-25T02:25:50.640Z,55.85
2016-05-25T02:26:50.659Z,56.01
2016-05-25T02:27:50.676Z,56.49
2016-05-25T02:28:50.711Z,56.59
2016-05-25T02:29:50.728Z,56.49
2016-05-25T02:30:50.747Z,56.68
2016-05-25T02:31:50.766Z,56.59
2016-05-25T02:32:50.800Z,56.49
2016-05-25T02:33:50.818Z,56.68
2016-05-25T02:34:50.853Z,56.77
2016-05-25T02:35:50.870Z,56.39
2016-05-25T02:36:50.733Z,56.49
2016-05-25T02:37:50.922Z,56.49
2016-05-25T02:38:50.941Z,56.39
2016-05-25T02:39:50.958Z,56.59
2016-05-25T02:40:50.994Z,56.49
2016-05-25T02:41:51.011Z,56.49
2016-05-25T02:42:51.030Z,56.39
2016-05-25T02:43:51.049Z,56.49
2016-05-25T02:44:51.082Z,56.3
2016-05-25T02:45:51.100Z,56.49
2016-05-25T02:46:51.150Z,56.49
2016-05-25T02:47:50.996Z,56.3
2016-05-25T02:48:51.015Z,56.49
2016-05-25T02:49:51.204Z,56.49
2016-05-25T02:50:51.238Z,56.2
2016-05-25T02:51:51.242Z,56.97
2016-05-25T02:52:51.118Z,56.77
2016-05-25T02:53:51.294Z,56.87
2016-05-25T02:54:51.312Z,56.77
2016-05-25T02:55:51.346Z,56.68
2016-05-25T02:56:51.365Z,56.87
2016-05-25T02:57:51.257Z,56.77
2016-05-25T02:58:51.417Z,56.87
2016-05-25T02:59:51.434Z,56.77
2016-05-25T03:00:51.469Z,56.77
2016-05-25T03:01:51.487Z,56.77
2016-05-25T03:02:51.506Z,56.59
2016-05-25T03:03:51.539Z,56.77
2016-05-25T03:04:51.558Z,56.68
2016-05-25T03:05:51.591Z,56.59
2016-05-25T03:06:51.595Z,56.59
2016-05-25T03:07:51.628Z,56.97
2016-05-25T03:08:51.647Z,56.68
2016-05-25T03:09:51.664Z,56.68
2016-05-25T03:10:51.699Z,56.59
2016-05-25T03:11:51.716Z,56.59
2016-05-25T03:12:51.752Z,56.59
2016-05-25T03:13:51.769Z,56.49
2016-05-25T03:14:51.788Z,56.49
2016-05-25T03:15:51.805Z,57.06
2016-05-25T03:16:51.840Z,56.59
2016-05-25T03:17:51.858Z,56.77
2016-05-25T03:18:51.893Z,56.68
2016-05-25T03:19:51.910Z,56.59
2016-05-25T03:20:51.929Z,56.68
2016-05-25T03:21:51.947Z,56.59
2016-05-25T03:22:51.982Z,57.06
2016-05-25T03:23:51.999Z,56.59
2016-05-25T03:24:52.018Z,56.77
2016-05-25T03:25:51.896Z,56.87
2016-05-25T03:26:52.086Z,56.68
2016-05-25T03:27:52.088Z,56.97
2016-05-25T03:28:52.123Z,57.35
2016-05-25T03:29:52.140Z,57.06
2016-05-25T03:30:52.159Z,57.45
2016-05-25T03:31:52.053Z,57.45
2016-05-25T03:32:52.211Z,57.26
2016-05-25T03:33:52.229Z,57.35
2016-05-25T03:34:52.279Z,57.45
2016-05-25T03:35:52.297Z,56.97
2016-05-25T03:36:52.316Z,57.26
2016-05-25T03:37:52.334Z,57.06
2016-05-25T03:38:52.196Z,57.16
2016-05-25T03:39:52.386Z,56.87
2016-05-25T03:40:52.405Z,57.06
2016-05-25T03:41:52.422Z,57.16
2016-05-25T03:42:52.457Z,56.97
2016-05-25T03:43:52.475Z,57.06
2016-05-25T03:44:52.493Z,57.06
2016-05-25T03:45:52.511Z,57.26
2016-05-25T03:46:52.686Z,57.06
2016-05-25T03:47:52.564Z,57.16
2016-05-25T03:48:52.599Z,56.97
2016-05-25T03:49:52.616Z,57.06
2016-05-25T03:50:52.635Z,57.06
2016-05-25T03:51:52.668Z,57.06
2016-05-25T03:52:52.687Z,57.16
2016-05-25T03:53:52.705Z,57.06
2016-05-25T03:54:52.739Z,57.06
2016-05-25T03:55:52.758Z,57.06
2016-05-25T03:56:52.791Z,57.06
2016-05-25T03:57:52.810Z,56.87
2016-05-25T03:58:52.829Z,57.16
2016-05-25T03:59:52.863Z,56.97
2016-05-25T04:00:52.865Z,56.77
2016-05-25T04:01:52.898Z,57.06
2016-05-25T04:02:52.918Z,56.97
2016-05-25T04:03:52.951Z,57.06
2016-05-25T04:04:52.970Z,57.06
2016-05-25T04:05:52.848Z,57.16
2016-05-25T04:06:53.006Z,57.06
2016-05-25T04:07:53.039Z,56.97
2016-05-25T04:08:52.903Z,57.16
2016-05-25T04:09:53.092Z,57.16
2016-05-25T04:10:53.126Z,57.16
2016-05-25T04:11:53.144Z,57.16
2016-05-25T04:12:53.163Z,56.97
2016-05-25T04:13:53.181Z,57.35
2016-05-25T04:14:53.200Z,57.16
2016-05-25T04:15:53.217Z,57.35
2016-05-25T04:16:53.252Z,57.54
2016-05-25T04:17:53.269Z,57.54
2016-05-25T04:18:53.304Z,56.68
2016-05-25T04:19:53.345Z,57.16
2016-05-25T04:20:53.403Z,57.16
2016-05-25T04:21:53.445Z,57.35
2016-05-25T04:22:53.488Z,56.68
2016-05-25T04:23:53.529Z,56.87
2016-05-25T04:24:53.572Z,56.49
2016-05-25T04:25:53.599Z,56.49
2016-05-25T04:26:53.626Z,56.49
2016-05-25T04:27:53.668Z,56.68
2016-05-25T04:28:53.710Z,56.59
2016-05-25T04:29:53.716Z,56.49
2016-05-25T04:30:53.754Z,56.49
2016-05-25T04:31:54.181Z,56.97
2016-05-25T04:32:53.811Z,56.59
2016-05-25T04:33:53.817Z,56.68
2016-05-25T04:34:53.853Z,57.06
2016-05-25T04:35:53.871Z,56.49
2016-05-25T04:36:53.908Z,56.77
2016-05-25T04:37:53.770Z,56.2
2016-05-25T04:38:53.962Z,56.49
2016-05-25T04:39:53.981Z,56.39
2016-05-25T04:40:54.014Z,56.59
2016-05-25T04:41:54.018Z,56.39
2016-05-25T04:42:54.053Z,56.59
2016-05-25T04:43:54.070Z,56.59
2016-05-25T04:44:54.090Z,56.68
2016-05-25T04:45:54.123Z,56.49
2016-05-25T04:46:54.392Z,56.49
2016-05-25T04:47:54.004Z,56.59
2016-05-25T04:48:54.194Z,55.82
2016-05-25T04:49:54.212Z,56.1
2016-05-25T04:50:54.231Z,56.2
2016-05-25T04:51:54.264Z,56.3
2016-05-25T04:52:54.283Z,56.49
2016-05-25T04:53:54.300Z,56.49
2016-05-25T04:54:54.336Z,56.39
2016-05-25T04:55:54.353Z,55.85
2016-05-25T04:56:54.230Z,55.82
2016-05-25T04:57:54.405Z,56.1
2016-05-25T04:58:54.424Z,55.91
2016-05-25T04:59:54.442Z,56.04
2016-05-25T05:00:54.477Z,55.91
2016-05-25T05:01:54.510Z,56.01
2016-05-25T05:02:54.513Z,56.1
2016-05-25T05:03:54.547Z,55.91
2016-05-25T05:04:54.565Z,56.13
2016-05-25T05:05:54.583Z,55.91
2016-05-25T05:06:54.617Z,55.44
2016-05-25T05:07:54.651Z,55.44
2016-05-25T05:08:54.669Z,55.53
2016-05-25T05:09:54.687Z,55.36
2016-05-25T05:10:54.721Z,55.65
2016-05-25T05:11:54.724Z,55.27
2016-05-25T05:12:54.759Z,55.27
2016-05-25T05:13:54.776Z,55.27
2016-05-25T05:14:54.810Z,55.36
2016-05-25T05:15:54.829Z,55.46
2016-05-25T05:16:54.691Z,55.65
2016-05-25T05:17:54.881Z,55.85
2016-05-25T05:18:54.900Z,55.75
2016-05-25T05:19:54.933Z,55.18
2016-05-25T05:20:54.937Z,55.36
2016-05-25T05:21:54.970Z,55.08
2016-05-25T05:22:54.989Z,54.89
2016-05-25T05:23:55.006Z,55.36
2016-05-25T05:24:55.041Z,54.99
2016-05-25T05:25:55.059Z,54.7
2016-05-25T05:26:55.078Z,54.79
2016-05-25T05:27:55.111Z,54.79
2016-05-25T05:28:55.130Z,54.63
2016-05-25T05:29:55.163Z,54.34
2016-05-25T05:30:55.182Z,54.34
2016-05-25T05:31:55.216Z,54.24
2016-05-25T05:32:55.234Z,54.05
2016-05-25T05:33:55.252Z,53.67
2016-05-25T05:34:55.286Z,53.77
2016-05-25T05:35:55.305Z,53.09
2016-05-25T05:36:55.324Z,53
2016-05-25T05:37:55.357Z,53.19
2016-05-25T05:38:55.391Z,52.93
2016-05-25T05:39:55.409Z,52.83
2016-05-25T05:40:55.427Z,52.45
2016-05-25T05:41:55.446Z,52.45
2016-05-25T05:42:55.479Z,51.78
2016-05-25T05:43:55.498Z,51.97
2016-05-25T05:44:55.531Z,51.3
2016-05-25T05:45:55.551Z,51.42
2016-05-25T05:46:55.568Z,51.32
2016-05-25T05:47:55.603Z,50.75
2016-05-25T05:48:55.621Z,51.14
2016-05-25T05:49:55.654Z,50.56
2016-05-25T05:50:55.673Z,50.75
2016-05-25T05:51:55.707Z,50.46
2016-05-25T05:52:55.725Z,49.98
2016-05-25T05:53:55.744Z,49.98
2016-05-25T05:54:55.777Z,50.2
2016-05-25T05:55:55.796Z,49.52
2016-05-25T05:56:55.830Z,49.24
2016-05-25T05:57:55.848Z,49.62
2016-05-25T05:58:55.883Z,48.85
2016-05-25T05:59:55.900Z,48.88
2016-05-25T06:00:55.934Z,48.88
2016-05-25T06:01:55.952Z,48.49
2016-05-25T06:02:55.971Z,48.79
2016-05-25T06:03:55.849Z,48.79
2016-05-25T06:04:56.023Z,48.4
2016-05-25T06:05:56.057Z,48.4
2016-05-25T06:06:56.075Z,48.11
2016-05-25T06:07:56.093Z,48.3
2016-05-25T06:08:56.160Z,47.72
2016-05-25T06:09:56.146Z,47.85
2016-05-25T06:10:56.180Z,47.82
2016-05-25T06:11:56.199Z,47.66
2016-05-25T06:12:56.232Z,47.36
2016-05-25T06:13:56.251Z,47.56
2016-05-25T06:14:56.284Z,47.27
2016-05-25T06:15:56.303Z,47.27
2016-05-25T06:16:56.649Z,47.36
2016-05-25T06:17:57.511Z,47.46
2016-05-25T06:18:56.390Z,47.36
2016-05-25T06:19:56.407Z,46.89
2016-05-25T06:20:56.425Z,47.27
2016-05-25T06:21:56.460Z,46.89
2016-05-25T06:22:56.493Z,47.08
2016-05-25T06:23:56.528Z,47.36
2016-05-25T06:24:56.531Z,46.89
2016-05-25T06:25:56.564Z,46.79
2016-05-25T06:26:56.583Z,46.69
2016-05-25T06:27:57.975Z,46.79
2016-05-25T06:28:56.634Z,46.79
2016-05-25T06:29:56.668Z,46.59
2016-05-25T06:30:56.686Z,47.08
2016-05-25T06:31:56.955Z,46.89
2016-05-25T06:32:56.755Z,46.89
2016-05-25T06:33:56.758Z,46.89
2016-05-25T06:34:56.792Z,46.79
2016-05-25T06:35:56.825Z,46.69
2016-05-25T06:36:56.844Z,47.17
2016-05-25T06:37:56.706Z,46.98
2016-05-25T06:38:56.896Z,46.79
2016-05-25T06:39:56.930Z,46.89
2016-05-25T06:40:56.948Z,46.89
2016-05-25T06:41:56.983Z,46.59
2016-05-25T06:42:57.719Z,46.59
2016-05-25T06:43:56.863Z,46.69
2016-05-25T06:44:57.052Z,46.89
2016-05-25T06:45:57.071Z,47.17
2016-05-25T06:46:57.104Z,46.59
2016-05-25T06:47:57.139Z,46.69
2016-05-25T06:48:57.157Z,46.41
2016-05-25T06:49:57.175Z,46.21
2016-05-25T06:50:57.210Z,46.31
2016-05-25T06:51:57.243Z,46.21
2016-05-25T06:52:57.261Z,46.21
2016-05-25T06:53:57.296Z,46.21
2016-05-25T06:54:57.314Z,46.5
2016-05-25T06:55:57.348Z,46.41
2016-05-25T06:56:57.367Z,46.21
2016-05-25T06:57:57.384Z,46.21
2016-05-25T06:58:57.262Z,46.5
2016-05-25T06:59:57.436Z,46.79
2016-05-25T07:00:57.470Z,46.41
2016-05-25T07:01:57.489Z,46.41
2016-05-25T07:02:59.008Z,46.5
2016-05-25T07:03:57.541Z,46.5
2016-05-25T07:04:57.575Z,46.41
2016-05-25T07:05:57.594Z,46.5
2016-05-25T07:06:57.627Z,46.5
2016-05-25T07:07:57.646Z,46.5
2016-05-25T07:08:57.680Z,46.31
2016-05-25T07:09:57.698Z,46.5
2016-05-25T07:10:57.716Z,46.69
2016-05-25T07:11:57.750Z,46.79
2016-05-25T07:12:57.784Z,46.69
2016-05-25T07:13:57.818Z,46.69
2016-05-25T07:14:57.665Z,46.41
2016-05-25T07:15:57.854Z,46.41
2016-05-25T07:16:57.873Z,46.5
2016-05-25T07:18:00.001Z,46.41
2016-05-25T07:18:57.926Z,46.41
2016-05-25T07:19:57.803Z,46.5
2016-05-25T07:20:57.978Z,46.31
2016-05-25T07:21:58.012Z,46.5
2016-05-25T07:22:58.530Z,46.5
2016-05-25T07:23:58.064Z,46.31
2016-05-25T07:24:57.926Z,46.41
2016-05-25T07:25:58.116Z,46.12
2016-05-25T07:26:58.165Z,46.31
2016-05-25T07:27:58.168Z,46.33
2016-05-25T07:28:58.186Z,46.31
2016-05-25T07:29:58.220Z,46.02
2016-05-25T07:30:58.239Z,46.41
2016-05-25T07:31:58.570Z,46.5
2016-05-25T07:32:58.291Z,46.53
2016-05-25T07:33:58.169Z,46.53
2016-05-25T07:34:58.344Z,46.31
2016-05-25T07:35:58.221Z,46.41
2016-05-25T07:36:58.397Z,46.33
2016-05-25T07:37:58.274Z,45.83
2016-05-25T07:38:58.448Z,46.12
2016-05-25T07:39:58.482Z,45.56
2016-05-25T07:40:58.500Z,45.76
2016-05-25T07:41:58.377Z,45.56
2016-05-25T07:42:58.552Z,45.95
2016-05-25T07:43:58.571Z,45.95
2016-05-25T07:44:58.605Z,45.56
2016-05-25T07:45:58.623Z,45.66
2016-05-25T07:46:58.657Z,45.76
2016-05-25T07:47:59.160Z,45.76
2016-05-25T07:48:58.709Z,45.28
2016-05-25T07:49:58.728Z,45.37
2016-05-25T07:50:58.762Z,45.47
2016-05-25T07:51:58.624Z,45.37
2016-05-25T07:52:58.814Z,45.47
2016-05-25T07:53:58.676Z,45.76
2016-05-25T07:54:58.710Z,45.66
2016-05-25T07:55:58.901Z,45.76
2016-05-25T07:56:58.918Z,45.76
2016-05-25T07:58:03.186Z,45.66
2016-05-25T07:58:58.815Z,45.66
2016-05-25T07:59:58.989Z,45.66
2016-05-25T08:00:59.022Z,45.56
2016-05-25T08:01:58.900Z,45.76
2016-05-25T08:02:59.575Z,45.76
2016-05-25T08:03:59.109Z,45.37
2016-05-25T08:04:59.128Z,45.76
2016-05-25T08:05:59.145Z,44.99
2016-05-25T08:06:59.180Z,45.37
2016-05-25T08:07:59.073Z,45.18
2016-05-25T08:08:59.232Z,45.85
2016-05-25T08:09:59.094Z,45.85
2016-05-25T08:10:59.284Z,45.85
2016-05-25T08:11:59.303Z,45.37
2016-05-25T08:12:59.336Z,45.47
2016-05-25T08:13:59.354Z,45.47
2016-05-25T08:14:59.388Z,45.56
2016-05-25T08:15:59.407Z,45.47
2016-05-25T08:16:59.441Z,44.89
2016-05-25T08:18:00.803Z,45.37
2016-05-25T08:18:59.321Z,45.47
2016-05-25T08:19:59.512Z,45.18
2016-05-25T08:20:59.546Z,44.99
2016-05-25T08:21:59.563Z,44.99
2016-05-25T08:22:59.973Z,45.18
2016-05-25T08:23:59.616Z,45.18
2016-05-25T08:24:59.650Z,45.18
2016-05-25T08:25:59.668Z,45.08
2016-05-25T08:26:59.545Z,45.08
2016-05-25T08:27:59.579Z,45.37
2016-05-25T08:28:59.598Z,45.37
2016-05-25T08:29:59.773Z,45.37
2016-05-25T08:30:59.806Z,45.47
2016-05-25T08:32:00.075Z,45.08
2016-05-25T08:32:59.859Z,44.99
2016-05-25T08:33:59.878Z,44.99
2016-05-25T08:34:59.911Z,44.99
2016-05-25T08:35:59.930Z,44.7
2016-05-25T08:36:59.963Z,44.79
2016-05-25T08:38:00.107Z,44.31
2016-05-25T08:39:00.000Z,44.31
2016-05-25T08:39:59.878Z,44.6
2016-05-25T08:41:00.052Z,44.51
2016-05-25T08:42:00.086Z,44.53
2016-05-25T08:43:00.589Z,44.7
2016-05-25T08:44:00.154Z,44.82
2016-05-25T08:45:00.172Z,44.79
2016-05-25T08:46:00.191Z,44.51
2016-05-25T08:47:00.209Z,44.43
2016-05-25T08:48:00.258Z,44.14
2016-05-25T08:49:00.261Z,44.14
2016-05-25T08:50:00.138Z,44.14
2016-05-25T08:51:00.329Z,44.24
2016-05-25T08:52:00.348Z,44.34
2016-05-25T08:53:02.132Z,44.14
2016-05-25T08:54:00.399Z,44.05
2016-05-25T08:55:00.418Z,44.43
2016-05-25T08:56:00.452Z,44.24
2016-05-25T08:57:00.486Z,44.43
2016-05-25T08:58:00.520Z,44.43
2016-05-25T08:59:00.538Z,44.34
2016-05-25T09:00:00.573Z,43.66
2016-05-25T09:01:00.418Z,43.95
2016-05-25T09:02:01.062Z,44.24
2016-05-25T09:03:00.487Z,43.85
2016-05-25T09:04:00.661Z,43.85
2016-05-25T09:05:00.522Z,43.47
2016-05-25T09:06:00.573Z,43.47
2016-05-25T09:07:00.747Z,43.37
2016-05-25T09:08:00.766Z,43.76
2016-05-25T09:09:00.800Z,43.95
2016-05-25T09:10:00.661Z,43.85
2016-05-25T09:11:00.852Z,43.85
2016-05-25T09:12:00.714Z,43.95
2016-05-25T09:13:00.905Z,43.85
2016-05-25T09:14:00.766Z,43.85
2016-05-25T09:15:00.956Z,44.14
2016-05-25T09:16:00.975Z,43.85
2016-05-25T09:17:01.166Z,44.05
2016-05-25T09:18:02.120Z,43.95
2016-05-25T09:19:00.905Z,43.95
2016-05-25T09:20:00.923Z,43.76
2016-05-25T09:21:01.113Z,44.24
2016-05-25T09:22:01.132Z,43.95
2016-05-25T09:23:01.150Z,44.24
2016-05-25T09:24:01.184Z,43.85
2016-05-25T09:25:01.218Z,43.95
2016-05-25T09:26:01.235Z,43.85
2016-05-25T09:27:01.254Z,43.57
2016-05-25T09:28:01.725Z,43.66
2016-05-25T09:29:01.322Z,43.66
2016-05-25T09:30:01.340Z,43.66
2016-05-25T09:31:01.374Z,43.95
2016-05-25T09:32:01.252Z,43.76
2016-05-25T09:33:01.254Z,43.85
2016-05-25T09:34:01.289Z,43.37
2016-05-25T09:35:01.307Z,43.66
2016-05-25T09:36:01.497Z,43.57
2016-05-25T09:37:01.515Z,43.57
2016-05-25T09:38:01.564Z,43.76
2016-05-25T09:39:01.568Z,43.37
2016-05-25T09:40:01.602Z,43.78
2016-05-25T09:41:01.635Z,43.66
2016-05-25T09:42:01.654Z,43.68
2016-05-25T09:43:04.470Z,43.3
2016-05-25T09:44:01.706Z,43.2
2016-05-25T09:45:01.724Z,43.2
2016-05-25T09:46:01.774Z,43.3
2016-05-25T09:47:02.261Z,43.11
2016-05-25T09:48:04.295Z,43.11
2016-05-25T09:49:01.844Z,42.82
2016-05-25T09:50:01.863Z,43.11
2016-05-25T09:51:01.913Z,42.72
2016-05-25T09:52:01.915Z,43.11
2016-05-25T09:53:03.418Z,42.82
2016-05-25T09:54:01.968Z,42.63
2016-05-25T09:55:02.001Z,42.53
2016-05-25T09:56:02.020Z,42.53
2016-05-25T09:57:02.037Z,42.53
2016-05-25T09:58:02.072Z,42.53
2016-05-25T09:59:02.090Z,42.05
2016-05-25T10:00:02.123Z,42.53
2016-05-25T10:01:02.158Z,42.05
2016-05-25T10:02:02.020Z,42.63
2016-05-25T10:03:02.195Z,42.14
2016-05-25T10:04:02.244Z,42.53
2016-05-25T10:05:02.262Z,42.14
2016-05-25T10:06:02.281Z,42.26
2016-05-25T10:07:02.314Z,42.43
2016-05-25T10:08:02.364Z,42.26
2016-05-25T10:09:02.367Z,42.24
2016-05-25T10:10:02.417Z,42.16
2016-05-25T10:11:02.419Z,42.26
2016-05-25T10:12:02.438Z,42.16
2016-05-25T10:13:02.472Z,41.97
2016-05-25T10:14:02.489Z,41.78
2016-05-25T10:15:02.524Z,41.68
2016-05-25T10:16:02.542Z,42.16
2016-05-25T10:17:02.577Z,41.88
2016-05-25T10:18:02.626Z,41.97
2016-05-25T10:19:02.628Z,41.2
2016-05-25T10:20:04.927Z,41.49
2016-05-25T10:21:02.524Z,41.59
2016-05-25T10:22:02.699Z,41.3
2016-05-25T10:23:02.733Z,41.2
2016-05-25T10:24:02.751Z,41.39
2016-05-25T10:25:02.786Z,41.39
2016-05-25T10:26:03.304Z,40.64
2016-05-25T10:27:02.681Z,40.55
2016-05-25T10:28:02.857Z,40.84
2016-05-25T10:29:02.905Z,41.22
2016-05-25T10:30:02.923Z,40.64
2016-05-25T10:31:05.707Z,39.97
2016-05-25T10:32:03.538Z,40.16
2016-05-25T10:33:02.995Z,39.49
2016-05-25T10:34:03.043Z,39.97
2016-05-25T10:35:03.046Z,39.89
2016-05-25T10:36:03.487Z,40.09
2016-05-25T10:37:03.098Z,39.12
2016-05-25T10:38:03.133Z,39.03
2016-05-25T10:39:03.151Z,39.22
2016-05-25T10:40:03.184Z,38.93
2016-05-25T10:41:03.516Z,39.12
2016-05-25T10:42:03.081Z,38.45
2016-05-25T10:43:03.272Z,38.95
2016-05-25T10:44:03.289Z,38.76
2016-05-25T10:45:03.322Z,38.95
2016-05-25T10:46:03.341Z,38.56
2016-05-25T10:47:03.235Z,38.18
2016-05-25T10:48:03.394Z,37.98
2016-05-25T10:49:03.272Z,37.98
2016-05-25T10:50:03.446Z,37.79
2016-05-25T10:51:03.480Z,37.98
2016-05-25T10:52:03.342Z,37.89
2016-05-25T10:53:03.533Z,37.52
2016-05-25T10:54:03.410Z,37.81
2016-05-25T10:55:03.429Z,37.23
2016-05-25T10:56:03.619Z,37.04
2016-05-25T10:57:03.652Z,37.13
2016-05-25T10:58:03.671Z,37.71
2016-05-25T10:59:03.689Z,36.94
2016-05-25T11:00:03.723Z,37.23
2016-05-25T11:01:03.741Z,36.55
2016-05-25T11:02:04.118Z,36.75
2016-05-25T11:03:04.497Z,36.55
2016-05-25T11:04:03.828Z,36.65
2016-05-25T11:05:03.862Z,36.67
2016-05-25T11:06:03.896Z,36.55
2016-05-25T11:07:03.914Z,36.67
2016-05-25T11:08:03.932Z,36.48
2016-05-25T11:09:03.966Z,36.57
2016-05-25T11:10:04.000Z,36.29
2016-05-25T11:11:03.862Z,36.48
2016-05-25T11:12:04.037Z,36.48
2016-05-25T11:13:04.070Z,36.29
2016-05-25T11:14:04.104Z,36.09
2016-05-25T11:15:04.122Z,36.09
2016-05-25T11:16:04.156Z,36.29
2016-05-25T11:17:04.050Z,36.29
2016-05-25T11:18:04.084Z,36.38
2016-05-25T11:19:04.244Z,36.19
2016-05-25T11:20:04.121Z,36.38
2016-05-25T11:21:04.294Z,36.19
2016-05-25T11:22:04.314Z,35.9
2016-05-25T11:23:04.347Z,36.38
2016-05-25T11:24:04.382Z,36.09
2016-05-25T11:25:04.399Z,35.9
2016-05-25T11:26:04.419Z,36.19
2016-05-25T11:27:04.452Z,36
2016-05-25T11:28:04.485Z,36.19
2016-05-25T11:29:04.520Z,36
2016-05-25T11:30:04.538Z,36.09
2016-05-25T11:31:04.556Z,35.8
2016-05-25T11:32:04.590Z,35.8
2016-05-25T11:33:04.468Z,36.09
2016-05-25T11:34:04.643Z,35.8
2016-05-25T11:35:04.677Z,36.09
2016-05-25T11:36:04.695Z,36.19
2016-05-25T11:37:04.728Z,36.38
2016-05-25T11:38:04.763Z,35.9
2016-05-25T11:39:04.625Z,35.8
2016-05-25T11:40:04.815Z,36
2016-05-25T11:41:04.834Z,36
2016-05-25T11:42:04.883Z,35.8
2016-05-25T11:43:04.886Z,36.09
2016-05-25T11:44:04.919Z,35.8
2016-05-25T11:45:04.938Z,35.9
2016-05-25T11:46:04.972Z,36.38
2016-05-25T11:47:05.334Z,35.71
2016-05-25T11:48:05.837Z,35.9
2016-05-25T11:49:05.042Z,35.9
2016-05-25T11:50:05.077Z,36.09
2016-05-25T11:51:05.094Z,35.9
2016-05-25T11:52:05.128Z,36.09
2016-05-25T11:53:05.178Z,35.9
2016-05-25T11:54:05.196Z,36.19
2016-05-25T11:55:05.215Z,35.9
2016-05-25T11:56:05.108Z,36.09
2016-05-25T11:57:05.266Z,35.9
2016-05-25T11:58:05.301Z,35.71
2016-05-25T11:59:05.335Z,35.61
2016-05-25T12:00:05.369Z,35.8
2016-05-25T12:01:05.387Z,36
2016-05-25T12:02:05.421Z,36.19
2016-05-25T12:03:05.362Z,36
2016-05-25T12:04:05.458Z,36.38
2016-05-25T12:05:05.492Z,36
2016-05-25T12:06:05.509Z,36.38
2016-05-25T12:07:05.543Z,36.38
2016-05-25T12:08:05.578Z,36.38
2016-05-25T12:09:05.440Z,36.36
2016-05-25T12:10:05.646Z,36.07
2016-05-25T12:11:05.679Z,36.17
2016-05-25T12:12:05.697Z,36.27
2016-05-25T12:13:05.717Z,36.46
2016-05-25T12:14:05.609Z,36.27
2016-05-25T12:15:05.784Z,36.46
2016-05-25T12:16:05.786Z,36.55
2016-05-25T12:17:06.867Z,36.46
2016-05-25T12:18:05.698Z,36.75
2016-05-25T12:19:05.873Z,36.75
2016-05-25T12:20:05.892Z,36.85
2016-05-25T12:21:05.925Z,36.75
2016-05-25T12:22:07.803Z,37.13
2016-05-25T12:23:05.837Z,37.13
2016-05-25T12:24:06.011Z,37.71
2016-05-25T12:25:06.030Z,37.5
2016-05-25T12:26:06.063Z,37.21
2016-05-25T12:27:05.941Z,37.31
2016-05-25T12:28:05.960Z,37.5
2016-05-25T12:29:06.150Z,37.31
2016-05-25T12:30:06.168Z,37.6
2016-05-25T12:31:06.202Z,37.6
2016-05-25T12:32:06.220Z,37.98
2016-05-25T12:33:06.254Z,38.08
2016-05-25T12:34:06.288Z,37.5
2016-05-25T12:35:06.307Z,37.79
2016-05-25T12:36:06.340Z,38.08
2016-05-25T12:37:06.374Z,37.98
2016-05-25T12:38:06.393Z,38.26
2016-05-25T12:39:06.412Z,38.37
2016-05-25T12:40:06.445Z,38.06
2016-05-25T12:41:06.323Z,38.54
2016-05-25T12:42:06.497Z,38.16
2016-05-25T12:43:06.531Z,38.74
2016-05-25T12:44:06.550Z,38.74
2016-05-25T12:45:06.584Z,38.83
2016-05-25T12:46:06.445Z,38.45
2016-05-25T12:47:07.901Z,39.31
2016-05-25T12:48:06.670Z,39.03
2016-05-25T12:49:06.689Z,39.22
2016-05-25T12:50:06.707Z,38.74
2016-05-25T12:51:06.740Z,38.93
2016-05-25T12:52:06.774Z,39.03
2016-05-25T12:53:06.792Z,38.93
2016-05-25T12:54:06.811Z,38.93
2016-05-25T12:55:06.861Z,39.12
2016-05-25T12:56:06.738Z,39.2